createdAt,value
2023-02-08T00:01:17.747Z,94.70
2023-02-08T00:03:45.984Z,94.50
2023-02-08T00:06:14.546Z,94.50
2023-02-08T00:08:42.938Z,94.50
2023-02-08T00:11:12.092Z,94.40
2023-02-08T00:13:42.106Z,94.70
2023-02-08T00:16:13.415Z,94.70
2023-02-08T00:18:41.670Z,94.60
2023-02-08T00:21:11.213Z,94.50
2023-02-08T00:23:39.209Z,94.60
2023-02-08T00:26:07.342Z,94.50
2023-02-08T00:28:35.421Z,94.40
2023-02-08T00:31:03.523Z,94.50
2023-02-08T00:33:32.746Z,94.50
2023-02-08T00:36:01.166Z,94.40
2023-02-08T00:38:29.289Z,94.50
2023-02-08T00:40:57.215Z,94.80
2023-02-08T00:43:25.076Z,95.80
2023-02-08T00:45:55.578Z,99.90
2023-02-08T00:48:23.434Z,97.10
2023-02-08T00:51:03.745Z,98.60
2023-02-08T00:53:31.969Z,98.80
2023-02-08T00:55:59.775Z,99.90
2023-02-08T00:58:27.716Z,99.30
2023-02-08T01:00:55.616Z,99.00
2023-02-08T01:03:24.819Z,97.20
2023-02-08T01:05:52.890Z,96.60
2023-02-08T01:08:22.204Z,96.10
2023-02-08T01:10:50.157Z,96.30
2023-02-08T01:13:18.317Z,96.50
2023-02-08T01:15:46.282Z,96.50
2023-02-08T01:18:14.092Z,96.90
2023-02-08T01:20:42.214Z,97.30
2023-02-08T01:23:10.172Z,97.80
2023-02-08T01:25:39.356Z,97.70
2023-02-08T01:28:07.228Z,98.20
2023-02-08T01:30:35.138Z,98.30
2023-02-08T01:33:02.987Z,98.70
2023-02-08T01:35:30.829Z,98.60
2023-02-08T01:37:58.668Z,99.40
2023-02-08T01:40:26.507Z,99.90
2023-02-08T01:42:55.646Z,99.90
2023-02-08T01:45:27.640Z,99.90
2023-02-08T01:48:02.752Z,99.90
2023-02-08T01:50:35.753Z,99.90
2023-02-08T01:53:04.721Z,99.90
2023-02-08T01:55:36.395Z,99.90
2023-02-08T01:58:10.030Z,99.40
2023-02-08T02:00:38.148Z,97.80
2023-02-08T02:03:07.430Z,98.30
2023-02-08T02:05:40.642Z,98.90
2023-02-08T02:08:08.958Z,99.40
2023-02-08T02:10:39.173Z,99.60
2023-02-08T02:13:13.040Z,99.90
2023-02-08T02:15:41.240Z,99.20
2023-02-08T02:18:10.136Z,99.60
2023-02-08T02:20:58.175Z,99.90
2023-02-08T02:23:56.511Z,99.90
2023-02-08T02:27:19.031Z,99.90
2023-02-08T02:30:19.187Z,99.90
2023-02-08T02:33:03.211Z,99.90
2023-02-08T02:35:39.385Z,99.90
2023-02-08T02:38:13.863Z,97.60
2023-02-08T02:40:51.223Z,97.80
2023-02-08T02:43:41.993Z,97.60
2023-02-08T02:46:19.224Z,97.70
2023-02-08T02:48:54.118Z,97.80
2023-02-08T02:51:28.484Z,97.80
2023-02-08T02:54:01.939Z,97.90
2023-02-08T02:56:33.178Z,98.00
2023-02-08T02:59:06.052Z,98.00
2023-02-08T03:01:34.427Z,98.20
2023-02-08T03:04:14.676Z,98.30
2023-02-08T03:06:58.126Z,98.30
2023-02-08T03:09:53.731Z,97.40
2023-02-08T03:12:31.954Z,98.30
2023-02-08T03:15:04.699Z,98.50
2023-02-08T03:17:45.261Z,98.50
2023-02-08T03:20:20.484Z,98.60
2023-02-08T03:23:00.260Z,98.70
2023-02-08T03:25:35.773Z,98.70
2023-02-08T03:28:09.634Z,99.00
2023-02-08T03:30:45.894Z,98.90
2023-02-08T03:33:16.705Z,98.90
2023-02-08T03:35:49.789Z,99.00
2023-02-08T03:38:24.647Z,98.80
2023-02-08T03:40:55.745Z,99.10
2023-02-08T03:43:28.460Z,99.20
2023-02-08T03:46:02.990Z,99.20
2023-02-08T03:48:33.111Z,99.20
2023-02-08T03:51:04.072Z,99.00
2023-02-08T03:53:38.164Z,99.10
2023-02-08T03:56:11.376Z,99.30
2023-02-08T03:58:45.696Z,99.10
2023-02-08T04:01:18.791Z,99.00
2023-02-08T04:03:48.751Z,99.10
2023-02-08T04:06:18.030Z,99.30
2023-02-08T04:08:45.911Z,99.40
2023-02-08T04:11:13.707Z,99.70
2023-02-08T04:13:41.532Z,99.90
2023-02-08T04:16:11.231Z,99.90
2023-02-08T04:18:39.270Z,99.90
2023-02-08T04:21:07.411Z,99.90
2023-02-08T04:23:36.641Z,99.90
2023-02-08T04:26:04.659Z,99.90
2023-02-08T04:28:32.641Z,99.90
2023-02-08T04:31:00.556Z,99.90
2023-02-08T04:33:28.556Z,99.90
2023-02-08T04:35:56.391Z,99.90
2023-02-08T04:38:24.236Z,99.90
2023-02-08T04:40:53.362Z,99.90
2023-02-08T04:43:21.173Z,99.90
2023-02-08T04:45:51.195Z,99.90
2023-02-08T04:48:19.516Z,99.90
2023-02-08T04:50:47.355Z,99.90
2023-02-08T04:53:15.184Z,99.90
2023-02-08T04:55:43.139Z,99.90
2023-02-08T04:58:12.296Z,99.90
2023-02-08T05:00:40.439Z,99.90
2023-02-08T05:03:08.496Z,99.90
2023-02-08T05:05:36.540Z,99.90
2023-02-08T05:08:04.732Z,99.90
2023-02-08T05:10:32.583Z,99.90
2023-02-08T05:13:00.536Z,99.90
2023-02-08T05:15:29.871Z,99.90
2023-02-08T05:17:57.773Z,99.90
2023-02-08T05:20:25.645Z,99.90
2023-02-08T05:22:53.509Z,99.90
2023-02-08T05:25:21.446Z,99.90
2023-02-08T05:27:49.469Z,99.90
2023-02-08T05:30:17.636Z,99.90
2023-02-08T05:32:46.889Z,99.90
2023-02-08T05:35:14.846Z,99.90
2023-02-08T05:37:42.773Z,99.90
2023-02-08T05:40:13.110Z,99.90
2023-02-08T05:42:42.391Z,99.90
2023-02-08T05:45:10.788Z,99.90
2023-02-08T05:47:38.745Z,99.90
2023-02-08T05:50:08.463Z,99.90
2023-02-08T05:52:36.351Z,99.90
2023-02-08T05:55:04.381Z,99.90
2023-02-08T05:57:35.468Z,99.90
2023-02-08T06:00:04.786Z,99.90
2023-02-08T06:02:34.199Z,99.90
2023-02-08T06:05:02.103Z,99.90
2023-02-08T06:07:31.353Z,99.90
2023-02-08T06:09:59.240Z,99.90
2023-02-08T06:12:27.154Z,99.90
2023-02-08T06:14:55.090Z,99.90
2023-02-08T06:17:22.953Z,99.90
2023-02-08T06:19:51.268Z,99.90
2023-02-08T06:22:19.261Z,99.90
2023-02-08T06:24:49.027Z,99.90
2023-02-08T06:27:16.942Z,99.90
2023-02-08T06:29:44.889Z,99.90
2023-02-08T06:32:13.511Z,99.90
2023-02-08T06:34:41.876Z,99.90
2023-02-08T06:37:09.738Z,99.90
2023-02-08T06:39:37.680Z,99.90
2023-02-08T06:42:07.025Z,99.90
2023-02-08T06:44:34.975Z,99.90
2023-02-08T06:47:02.897Z,99.90
2023-02-08T06:49:30.770Z,99.90
2023-02-08T06:51:58.639Z,99.90
2023-02-08T06:54:26.604Z,99.90
2023-02-08T06:56:54.610Z,99.90
2023-02-08T06:59:23.894Z,99.90
2023-02-08T07:01:51.971Z,99.90
2023-02-08T07:04:19.907Z,99.90
2023-02-08T07:06:49.800Z,99.90
2023-02-08T07:09:17.724Z,99.90
2023-02-08T07:11:45.673Z,99.90
2023-02-08T07:14:15.196Z,99.90
2023-02-08T07:16:44.472Z,99.90
2023-02-08T07:19:12.318Z,99.90
2023-02-08T07:21:40.205Z,99.90
2023-02-08T07:24:08.130Z,99.90
2023-02-08T07:26:36.008Z,99.90
2023-02-08T07:29:03.879Z,99.90
2023-02-08T07:31:31.842Z,99.90
2023-02-08T07:34:01.476Z,99.90
2023-02-08T07:36:29.433Z,99.90
2023-02-08T07:38:57.379Z,99.90
2023-02-08T07:41:25.372Z,99.90
2023-02-08T07:43:53.241Z,99.90
2023-02-08T07:46:22.655Z,99.90
2023-02-08T07:48:50.865Z,99.90
2023-02-08T07:51:20.391Z,99.90
2023-02-08T07:53:48.258Z,99.90
2023-02-08T07:56:16.275Z,99.90
2023-02-08T07:58:44.166Z,99.90
2023-02-08T08:01:21.842Z,99.90
2023-02-08T08:03:50.553Z,99.90
2023-02-08T08:06:20.166Z,99.90
2023-02-08T08:08:55.232Z,99.90
2023-02-08T08:11:23.202Z,99.90
2023-02-08T08:16:53.133Z,99.90
2023-02-08T08:19:20.963Z,99.90
2023-02-08T08:21:50.159Z,99.90
2023-02-08T08:24:17.964Z,99.90
2023-02-08T08:26:45.843Z,99.90
2023-02-08T08:29:14.307Z,99.90
2023-02-08T08:31:44.574Z,99.90
2023-02-08T08:34:12.433Z,99.90
2023-02-08T08:36:40.317Z,99.90
2023-02-08T08:39:09.573Z,99.90
2023-02-08T08:41:37.950Z,99.90
2023-02-08T08:44:06.350Z,99.90
2023-02-08T08:46:34.383Z,99.90
2023-02-08T08:49:03.853Z,99.90
2023-02-08T08:51:35.245Z,99.90
2023-02-08T08:54:05.103Z,99.90
2023-02-08T08:56:35.026Z,99.90
2023-02-08T08:59:02.937Z,99.90
2023-02-08T09:01:33.557Z,99.90
2023-02-08T09:04:01.901Z,99.90
2023-02-08T09:06:30.094Z,99.90
2023-02-08T09:08:57.991Z,99.90
2023-02-08T09:11:25.885Z,99.90
2023-02-08T09:13:56.240Z,99.90
2023-02-08T09:16:25.802Z,99.90
2023-02-08T09:18:53.795Z,99.90
2023-02-08T09:21:24.734Z,99.90
2023-02-08T09:23:54.251Z,99.90
2023-02-08T09:26:22.818Z,99.90
2023-02-08T09:28:50.809Z,99.90
2023-02-08T09:31:23.435Z,99.90
2023-02-08T09:33:52.494Z,99.90
2023-02-08T09:36:21.468Z,99.90
2023-02-08T09:38:51.665Z,99.90
2023-02-08T09:41:32.752Z,99.90
2023-02-08T09:44:14.272Z,99.90
2023-02-08T09:46:50.803Z,99.90
2023-02-08T09:49:24.793Z,99.90
2023-02-08T09:51:57.591Z,99.90
2023-02-08T09:54:31.103Z,99.90
2023-02-08T09:57:01.584Z,99.90
2023-02-08T09:59:32.824Z,99.90
2023-02-08T10:02:12.475Z,99.90
2023-02-08T10:04:54.241Z,99.90
2023-02-08T10:07:22.189Z,99.90
2023-02-08T10:09:50.851Z,99.90
2023-02-08T10:12:32.509Z,99.90
2023-02-08T10:15:13.180Z,99.90
2023-02-08T10:18:09.160Z,99.90
2023-02-08T10:20:47.279Z,99.90
2023-02-08T10:23:34.028Z,99.90
2023-02-08T10:26:13.371Z,99.90
2023-02-08T10:28:56.970Z,99.90
2023-02-08T10:31:37.975Z,99.90
2023-02-08T10:34:16.644Z,99.90
2023-02-08T10:36:44.971Z,99.90
2023-02-08T10:39:18.728Z,99.90
2023-02-08T10:41:47.220Z,99.90
2023-02-08T10:44:27.973Z,99.90
2023-02-08T10:47:04.315Z,99.90
2023-02-08T10:49:40.071Z,99.90
2023-02-08T10:52:08.216Z,99.90
2023-02-08T10:54:36.266Z,99.90
2023-02-08T10:57:06.535Z,99.90
2023-02-08T10:59:39.737Z,99.90
2023-02-08T11:02:21.641Z,99.90
2023-02-08T11:05:01.738Z,99.90
2023-02-08T11:07:30.294Z,99.90
2023-02-08T11:10:32.136Z,99.90
2023-02-08T11:13:03.715Z,99.90
2023-02-08T11:15:38.929Z,99.90
2023-02-08T11:18:14.669Z,99.90
2023-02-08T11:20:49.636Z,99.90
2023-02-08T11:23:23.013Z,99.90
2023-02-08T11:25:51.357Z,99.90
2023-02-08T11:28:28.126Z,99.90
2023-02-08T11:30:58.011Z,99.90
2023-02-08T11:33:27.407Z,99.90
2023-02-08T11:36:01.675Z,99.90
2023-02-08T11:38:30.206Z,99.90
2023-02-08T11:41:00.794Z,99.90
2023-02-08T11:43:31.705Z,99.90
2023-02-08T11:46:01.498Z,99.90
2023-02-08T11:48:39.691Z,99.90
2023-02-08T11:51:09.855Z,99.90
2023-02-08T11:53:40.630Z,99.90
2023-02-08T11:56:17.738Z,99.90
2023-02-08T11:58:58.341Z,99.90
2023-02-08T12:01:29.943Z,99.90
2023-02-08T12:04:01.124Z,99.90
2023-02-08T12:07:01.875Z,99.90
2023-02-08T12:10:14.339Z,99.90
2023-02-08T12:12:57.717Z,99.90
2023-02-08T12:15:40.161Z,99.90
2023-02-08T12:18:38.472Z,99.90
2023-02-08T12:21:13.714Z,99.90
2023-02-08T12:23:56.330Z,99.90
2023-02-08T12:26:52.758Z,99.90
2023-02-08T12:29:46.953Z,99.90
2023-02-08T12:32:30.228Z,99.90
2023-02-08T12:35:29.478Z,99.90
2023-02-08T12:38:27.842Z,99.90
2023-02-08T12:43:41.481Z,99.60
2023-02-08T12:46:23.452Z,99.90
2023-02-08T12:49:19.814Z,99.90
2023-02-08T12:51:55.792Z,99.90
2023-02-08T12:54:31.717Z,99.90
2023-02-08T12:57:02.953Z,99.90
2023-02-08T12:59:35.184Z,99.80
2023-02-08T13:02:07.774Z,98.40
2023-02-08T13:04:40.174Z,97.60
2023-02-08T13:07:14.852Z,96.70
2023-02-08T13:09:49.389Z,96.60
2023-02-08T13:12:22.720Z,96.30
2023-02-08T13:14:54.590Z,95.70
2023-02-08T13:17:26.544Z,95.80
2023-02-08T13:20:00.379Z,95.10
2023-02-08T13:22:31.395Z,94.80
2023-02-08T13:25:07.692Z,94.40
2023-02-08T13:27:37.588Z,97.30
2023-02-08T13:30:07.394Z,94.00
2023-02-08T13:32:38.236Z,94.10
2023-02-08T13:35:14.439Z,93.50
2023-02-08T13:37:42.985Z,93.80
2023-02-08T13:40:21.455Z,93.10
2023-02-08T13:42:55.262Z,92.80
2023-02-08T13:45:27.894Z,92.60
2023-02-08T13:48:00.422Z,92.50
2023-02-08T13:50:47.208Z,91.70
2023-02-08T13:53:16.813Z,90.90
2023-02-08T13:56:06.720Z,91.00
2023-02-08T13:59:01.327Z,90.70
2023-02-08T14:01:30.415Z,90.30
2023-02-08T14:04:37.528Z,90.70
2023-02-08T14:07:20.617Z,90.30
2023-02-08T14:10:09.760Z,90.00
2023-02-08T14:12:43.752Z,89.40
2023-02-08T14:15:28.769Z,88.70
2023-02-08T14:17:59.686Z,88.80
2023-02-08T14:20:34.678Z,87.70
2023-02-08T14:23:05.670Z,87.40
2023-02-08T14:25:43.483Z,86.80
2023-02-08T14:28:27.007Z,85.70
2023-02-08T14:30:58.920Z,85.80
2023-02-08T14:33:28.245Z,85.80
2023-02-08T14:35:59.054Z,86.00
2023-02-08T14:39:05.243Z,85.70
2023-02-08T14:41:57.111Z,85.80
2023-02-08T14:45:06.584Z,85.70
2023-02-08T14:47:57.804Z,84.70
2023-02-08T14:50:30.064Z,84.60
2023-02-08T14:53:01.030Z,84.70
2023-02-08T14:55:33.314Z,83.90
2023-02-08T14:58:02.668Z,83.60
2023-02-08T15:00:35.249Z,83.60
2023-02-08T15:03:06.162Z,84.00
2023-02-08T15:05:42.021Z,84.00
2023-02-08T15:08:10.134Z,84.00
2023-02-08T15:10:44.883Z,84.10
2023-02-08T15:13:20.323Z,84.00
2023-02-08T15:15:53.367Z,84.30
2023-02-08T15:18:25.456Z,84.80
2023-02-08T15:21:03.360Z,85.00
2023-02-08T15:23:31.766Z,85.20
2023-02-08T15:26:02.128Z,85.60
2023-02-08T15:28:31.439Z,86.50
2023-02-08T15:31:01.638Z,85.80
2023-02-08T15:33:31.711Z,85.90
2023-02-08T15:36:04.487Z,85.80
2023-02-08T15:38:35.399Z,85.80
2023-02-08T15:41:06.642Z,86.00
2023-02-08T15:43:35.486Z,86.30
2023-02-08T15:46:06.206Z,86.50
2023-02-08T15:48:44.822Z,87.00
2023-02-08T15:51:14.624Z,87.50
2023-02-08T15:53:46.500Z,88.10
2023-02-08T15:56:30.405Z,88.40
2023-02-08T15:59:05.274Z,88.80
2023-02-08T16:01:33.464Z,89.10
2023-02-08T16:04:08.294Z,89.60
2023-02-08T16:06:39.758Z,90.00
2023-02-08T16:09:07.970Z,90.20
2023-02-08T16:11:37.612Z,90.20
2023-02-08T16:14:07.775Z,90.70
2023-02-08T16:16:41.586Z,90.50
2023-02-08T16:19:24.629Z,90.80
2023-02-08T16:21:53.265Z,90.70
2023-02-08T16:24:24.481Z,90.90
2023-02-08T16:27:02.614Z,91.00
2023-02-08T16:29:32.491Z,91.20
2023-02-08T16:32:03.912Z,91.20
2023-02-08T16:34:38.546Z,91.10
2023-02-08T16:37:07.972Z,91.60
2023-02-08T16:39:51.479Z,91.80
2023-02-08T16:42:30.467Z,91.80
2023-02-08T16:45:17.690Z,91.90
2023-02-08T16:47:48.418Z,92.10
2023-02-08T16:50:19.470Z,92.10
2023-02-08T16:52:50.900Z,92.10
2023-02-08T16:55:21.463Z,92.20
2023-02-08T16:57:50.495Z,92.30
2023-02-08T17:00:22.748Z,92.40
2023-02-08T17:02:50.459Z,96.10
2023-02-08T17:05:22.181Z,99.90
2023-02-08T17:07:50.248Z,99.70
2023-02-08T17:10:22.126Z,93.90
2023-02-08T17:12:49.992Z,92.70
2023-02-08T17:15:18.080Z,92.70
2023-02-08T17:17:45.883Z,92.70
2023-02-08T17:20:21.412Z,92.70
2023-02-08T17:22:49.425Z,92.80
2023-02-08T17:25:19.797Z,92.90
2023-02-08T17:27:50.904Z,98.50
2023-02-08T17:30:22.546Z,93.30
2023-02-08T17:32:51.277Z,93.10
2023-02-08T17:35:21.088Z,93.20
2023-02-08T17:37:50.470Z,93.30
2023-02-08T17:40:19.091Z,93.40
2023-02-08T17:42:47.739Z,93.70
2023-02-08T17:45:15.605Z,94.30
2023-02-08T17:47:43.601Z,94.50
2023-02-08T17:50:12.392Z,94.80
2023-02-08T17:52:42.541Z,95.00
2023-02-08T17:55:13.899Z,95.80
2023-02-08T17:57:43.066Z,96.70
2023-02-08T18:02:44.174Z,93.40
2023-02-08T18:05:12.033Z,93.70
2023-02-08T18:07:41.657Z,93.80
2023-02-08T18:10:11.105Z,93.80
2023-02-08T18:12:39.402Z,94.30
2023-02-08T18:15:09.743Z,94.00
2023-02-08T18:17:37.587Z,94.10
2023-02-08T18:20:06.874Z,94.30
2023-02-08T18:22:34.907Z,94.40
2023-02-08T18:25:04.124Z,94.50
2023-02-08T18:27:32.335Z,94.50
2023-02-08T18:30:00.230Z,94.60
2023-02-08T18:32:28.420Z,94.80
2023-02-08T18:34:58.451Z,95.00
2023-02-08T18:37:26.336Z,94.90
2023-02-08T18:39:54.176Z,94.90
2023-02-08T18:42:23.310Z,95.00
2023-02-08T18:44:51.167Z,95.20
2023-02-08T18:47:19.322Z,95.20
2023-02-08T18:49:47.757Z,95.30
2023-02-08T18:52:16.162Z,95.40
2023-02-08T18:54:44.012Z,95.30
2023-02-08T18:57:12.264Z,95.40
2023-02-08T18:59:41.573Z,95.50
2023-02-08T19:02:12.056Z,95.50
2023-02-08T19:04:40.389Z,95.70
2023-02-08T19:07:08.573Z,95.70
2023-02-08T19:09:36.493Z,95.60
2023-02-08T19:12:04.696Z,95.70
2023-02-08T19:14:32.897Z,95.90
2023-02-08T19:17:02.157Z,96.00
2023-02-08T19:19:30.271Z,95.90
2023-02-08T19:21:58.073Z,96.00
2023-02-08T19:24:26.008Z,96.10
2023-02-08T19:26:53.864Z,96.10
2023-02-08T19:29:23.209Z,96.10
2023-02-08T19:31:51.297Z,96.10
2023-02-08T19:34:20.962Z,96.10
2023-02-08T19:36:51.561Z,96.10
2023-02-08T19:39:22.046Z,96.10
2023-02-08T19:41:50.659Z,96.10
2023-02-08T19:44:20.348Z,96.20
2023-02-08T19:46:49.794Z,96.10
2023-02-08T19:49:17.829Z,96.10
2023-02-08T19:51:47.030Z,96.20
2023-02-08T19:54:17.007Z,96.20
2023-02-08T19:56:45.127Z,96.50
2023-02-08T19:59:18.948Z,96.30
2023-02-08T20:01:47.552Z,96.20
2023-02-08T20:04:15.549Z,96.30
2023-02-08T20:06:44.937Z,96.20
2023-02-08T20:09:16.175Z,96.20
2023-02-08T20:11:56.501Z,96.20
2023-02-08T20:14:25.814Z,96.30
2023-02-08T20:16:53.846Z,96.20
2023-02-08T20:19:21.787Z,96.20
2023-02-08T20:21:49.723Z,96.30
2023-02-08T20:24:19.187Z,96.40
2023-02-08T20:26:48.078Z,96.50
2023-02-08T20:29:16.870Z,96.70
2023-02-08T20:31:48.384Z,96.50
2023-02-08T20:34:19.067Z,96.50
2023-02-08T20:37:04.476Z,96.50
2023-02-08T20:39:36.035Z,96.50
2023-02-08T20:42:04.094Z,96.50
2023-02-08T20:44:31.971Z,96.50
2023-02-08T20:46:59.801Z,96.40
2023-02-08T20:49:27.626Z,96.70
2023-02-08T20:51:55.974Z,96.60
2023-02-08T20:54:24.928Z,96.50
2023-02-08T20:56:55.946Z,96.30
2023-02-08T20:59:23.860Z,96.40
2023-02-08T21:01:52.029Z,96.40
2023-02-08T21:04:23.176Z,96.40
2023-02-08T21:06:51.693Z,96.40
2023-02-08T21:09:21.203Z,96.40
2023-02-08T21:11:49.957Z,96.50
2023-02-08T21:14:23.124Z,96.50
2023-02-08T21:16:52.891Z,96.40
2023-02-08T21:19:21.382Z,96.40
2023-02-08T21:21:51.915Z,96.40
2023-02-08T21:24:19.864Z,96.50
2023-02-08T21:26:47.929Z,96.60
2023-02-08T21:29:16.271Z,96.40
2023-02-08T21:31:45.770Z,96.30
2023-02-08T21:34:13.831Z,96.20
2023-02-08T21:36:41.693Z,96.30
2023-02-08T21:39:09.623Z,96.50
2023-02-08T21:41:37.584Z,96.40
2023-02-08T21:44:09.283Z,96.40
2023-02-08T21:46:37.516Z,96.40
2023-02-08T21:49:24.295Z,96.30
2023-02-08T21:52:09.723Z,96.40
2023-02-08T21:54:44.648Z,96.40
2023-02-08T21:57:18.835Z,96.50
2023-02-08T21:59:47.819Z,96.50
2023-02-08T22:02:21.903Z,96.60
2023-02-08T22:05:08.949Z,96.70
2023-02-08T22:07:45.050Z,96.80
2023-02-08T22:10:14.281Z,96.80
2023-02-08T22:12:42.225Z,96.80
2023-02-08T22:15:11.575Z,96.80
2023-02-08T22:17:39.627Z,96.80
2023-02-08T22:20:10.180Z,96.80
2023-02-08T22:22:38.543Z,96.80
2023-02-08T22:25:07.205Z,96.80
2023-02-08T22:27:35.029Z,96.90
2023-02-08T22:30:02.926Z,96.90
2023-02-08T22:32:30.830Z,96.90
2023-02-08T22:34:58.840Z,96.90
2023-02-08T22:37:28.012Z,96.80
2023-02-08T22:39:55.829Z,96.80
2023-02-08T22:42:23.640Z,96.80
2023-02-08T22:44:51.480Z,96.70
2023-02-08T22:47:19.328Z,96.80
2023-02-08T22:49:47.136Z,96.70
2023-02-08T22:52:15.644Z,96.70
2023-02-08T22:54:44.858Z,96.60
2023-02-08T22:57:12.917Z,96.70
2023-02-08T22:59:41.338Z,96.70
2023-02-08T23:02:09.395Z,96.80
2023-02-08T23:04:38.243Z,96.80
2023-02-08T23:07:06.336Z,97.00
2023-02-08T23:09:34.153Z,96.80
2023-02-08T23:12:03.501Z,96.90
2023-02-08T23:14:31.434Z,97.00
2023-02-08T23:16:59.270Z,97.10
2023-02-08T23:19:27.447Z,97.10
2023-02-08T23:21:58.396Z,97.00
2023-02-08T23:24:26.379Z,96.90
2023-02-08T23:26:54.177Z,96.90
2023-02-08T23:29:23.444Z,96.90
2023-02-08T23:31:51.639Z,96.90
2023-02-08T23:34:19.731Z,96.90
2023-02-08T23:36:47.827Z,96.90
2023-02-08T23:39:15.694Z,96.90
2023-02-08T23:41:43.672Z,96.80
2023-02-08T23:44:12.028Z,96.70
2023-02-08T23:46:41.293Z,96.60
2023-02-08T23:49:09.133Z,96.60
2023-02-08T23:51:37.000Z,96.70
2023-02-08T23:54:05.083Z,96.60
2023-02-08T23:56:32.985Z,96.60
2023-02-08T23:59:00.983Z,96.70
